sensor_id;sensor_type;location;lat;lon;timestamp;P1;durP1;ratioP1;P2;durP2;ratioP2
68300;SDS011;55146;47.468;18.806;2024-01-30T00:01:33;30.43;;;16.40;;
68300;SDS011;55146;47.468;18.806;2024-01-30T00:03:58;34.47;;;16.63;;
68300;SDS011;55146;47.468;18.806;2024-01-30T00:06:23;30.80;;;15.27;;
68300;SDS011;55146;47.468;18.806;2024-01-30T00:08:49;28.60;;;16.50;;
68300;SDS011;55146;47.468;18.806;2024-01-30T00:11:15;31.50;;;17.83;;
68300;SDS011;55146;47.468;18.806;2024-01-30T00:13:41;34.63;;;17.08;;
68300;SDS011;55146;47.468;18.806;2024-01-30T00:16:06;33.87;;;16.90;;
68300;SDS011;55146;47.468;18.806;2024-01-30T00:18:33;33.22;;;17.12;;
68300;SDS011;55146;47.468;18.806;2024-01-30T00:20:58;31.57;;;17.43;;
68300;SDS011;55146;47.468;18.806;2024-01-30T00:23:23;32.23;;;16.70;;
68300;SDS011;55146;47.468;18.806;2024-01-30T00:25:49;35.28;;;16.87;;
68300;SDS011;55146;47.468;18.806;2024-01-30T00:28:15;32.47;;;16.80;;
68300;SDS011;55146;47.468;18.806;2024-01-30T00:30:40;31.02;;;17.37;;
68300;SDS011;55146;47.468;18.806;2024-01-30T00:33:05;27.92;;;16.35;;
68300;SDS011;55146;47.468;18.806;2024-01-30T00:35:31;34.23;;;16.47;;
68300;SDS011;55146;47.468;18.806;2024-01-30T00:37:56;32.37;;;16.40;;
68300;SDS011;55146;47.468;18.806;2024-01-30T00:40:22;31.13;;;15.80;;
68300;SDS011;55146;47.468;18.806;2024-01-30T00:42:47;30.17;;;15.55;;
68300;SDS011;55146;47.468;18.806;2024-01-30T00:45:14;25.97;;;14.87;;
68300;SDS011;55146;47.468;18.806;2024-01-30T00:47:39;31.67;;;16.80;;
68300;SDS011;55146;47.468;18.806;2024-01-30T00:50:05;29.67;;;14.30;;
68300;SDS011;55146;47.468;18.806;2024-01-30T00:52:31;30.95;;;16.90;;
68300;SDS011;55146;47.468;18.806;2024-01-30T00:54:58;26.23;;;14.23;;
68300;SDS011;55146;47.468;18.806;2024-01-30T00:57:24;30.48;;;14.57;;
68300;SDS011;55146;47.468;18.806;2024-01-30T00:59:49;25.90;;;15.40;;
68300;SDS011;55146;47.468;18.806;2024-01-30T01:02:14;31.70;;;16.37;;
68300;SDS011;55146;47.468;18.806;2024-01-30T01:04:42;26.62;;;14.38;;
68300;SDS011;55146;47.468;18.806;2024-01-30T01:07:07;28.47;;;14.93;;
68300;SDS011;55146;47.468;18.806;2024-01-30T01:09:33;30.27;;;16.62;;
68300;SDS011;55146;47.468;18.806;2024-01-30T01:11:58;32.17;;;16.60;;
68300;SDS011;55146;47.468;18.806;2024-01-30T01:14:23;29.30;;;14.87;;
68300;SDS011;55146;47.468;18.806;2024-01-30T01:16:49;30.47;;;15.63;;
68300;SDS011;55146;47.468;18.806;2024-01-30T01:19:14;30.37;;;14.90;;
68300;SDS011;55146;47.468;18.806;2024-01-30T01:21:39;30.10;;;14.63;;
68300;SDS011;55146;47.468;18.806;2024-01-30T01:24:05;25.98;;;13.90;;
68300;SDS011;55146;47.468;18.806;2024-01-30T01:26:30;30.27;;;14.90;;
68300;SDS011;55146;47.468;18.806;2024-01-30T01:28:56;29.17;;;15.43;;
68300;SDS011;55146;47.468;18.806;2024-01-30T01:31:21;32.33;;;13.40;;
68300;SDS011;55146;47.468;18.806;2024-01-30T01:33:49;24.90;;;14.35;;
68300;SDS011;55146;47.468;18.806;2024-01-30T01:36:15;29.57;;;15.33;;
68300;SDS011;55146;47.468;18.806;2024-01-30T01:38:40;28.90;;;14.83;;
68300;SDS011;55146;47.468;18.806;2024-01-30T01:41:05;27.43;;;14.33;;
68300;SDS011;55146;47.468;18.806;2024-01-30T01:43:31;27.23;;;14.25;;
68300;SDS011;55146;47.468;18.806;2024-01-30T01:45:56;26.62;;;14.43;;
68300;SDS011;55146;47.468;18.806;2024-01-30T01:48:21;30.73;;;16.60;;
68300;SDS011;55146;47.468;18.806;2024-01-30T01:50:47;27.73;;;13.97;;
68300;SDS011;55146;47.468;18.806;2024-01-30T01:53:12;28.50;;;15.10;;
68300;SDS011;55146;47.468;18.806;2024-01-30T01:55:40;27.45;;;14.80;;
68300;SDS011;55146;47.468;18.806;2024-01-30T01:58:05;34.28;;;15.65;;
68300;SDS011;55146;47.468;18.806;2024-01-30T02:00:33;32.70;;;16.20;;
68300;SDS011;55146;47.468;18.806;2024-01-30T02:03:00;30.90;;;15.32;;
68300;SDS011;55146;47.468;18.806;2024-01-30T02:05:27;27.67;;;14.25;;
68300;SDS011;55146;47.468;18.806;2024-01-30T02:07:52;29.85;;;14.75;;
68300;SDS011;55146;47.468;18.806;2024-01-30T02:10:19;27.45;;;15.25;;
68300;SDS011;55146;47.468;18.806;2024-01-30T02:12:44;31.10;;;15.23;;
68300;SDS011;55146;47.468;18.806;2024-01-30T02:15:13;29.92;;;15.25;;
68300;SDS011;55146;47.468;18.806;2024-01-30T02:17:38;30.93;;;15.17;;
68300;SDS011;55146;47.468;18.806;2024-01-30T02:20:04;25.93;;;14.90;;
68300;SDS011;55146;47.468;18.806;2024-01-30T02:22:30;29.83;;;15.45;;
68300;SDS011;55146;47.468;18.806;2024-01-30T02:24:58;27.73;;;14.50;;
68300;SDS011;55146;47.468;18.806;2024-01-30T02:27:24;28.03;;;14.97;;
68300;SDS011;55146;47.468;18.806;2024-01-30T02:29:49;24.27;;;14.47;;
68300;SDS011;55146;47.468;18.806;2024-01-30T02:32:14;28.08;;;15.35;;
68300;SDS011;55146;47.468;18.806;2024-01-30T02:34:40;26.02;;;13.77;;
68300;SDS011;55146;47.468;18.806;2024-01-30T02:37:05;35.80;;;14.90;;
68300;SDS011;55146;47.468;18.806;2024-01-30T02:39:30;25.30;;;13.87;;
68300;SDS011;55146;47.468;18.806;2024-01-30T02:41:56;27.67;;;14.60;;
68300;SDS011;55146;47.468;18.806;2024-01-30T02:44:22;23.95;;;14.45;;
68300;SDS011;55146;47.468;18.806;2024-01-30T02:46:47;30.43;;;14.70;;
68300;SDS011;55146;47.468;18.806;2024-01-30T02:49:12;30.50;;;15.93;;
68300;SDS011;55146;47.468;18.806;2024-01-30T02:51:38;26.60;;;14.23;;
68300;SDS011;55146;47.468;18.806;2024-01-30T02:54:03;26.37;;;14.63;;
68300;SDS011;55146;47.468;18.806;2024-01-30T02:56:28;24.17;;;12.93;;
68300;SDS011;55146;47.468;18.806;2024-01-30T02:58:54;25.50;;;13.85;;
68300;SDS011;55146;47.468;18.806;2024-01-30T03:01:19;34.93;;;14.80;;
68300;SDS011;55146;47.468;18.806;2024-01-30T03:03:45;29.53;;;14.83;;
68300;SDS011;55146;47.468;18.806;2024-01-30T03:06:10;25.87;;;14.10;;
68300;SDS011;55146;47.468;18.806;2024-01-30T03:08:35;28.40;;;14.70;;
68300;SDS011;55146;47.468;18.806;2024-01-30T03:11:01;26.02;;;13.93;;
68300;SDS011;55146;47.468;18.806;2024-01-30T03:13:26;28.47;;;14.30;;
68300;SDS011;55146;47.468;18.806;2024-01-30T03:15:52;28.30;;;14.10;;
68300;SDS011;55146;47.468;18.806;2024-01-30T03:18:17;28.33;;;13.57;;
68300;SDS011;55146;47.468;18.806;2024-01-30T03:20:43;30.12;;;15.02;;
68300;SDS011;55146;47.468;18.806;2024-01-30T03:23:08;24.77;;;13.77;;
68300;SDS011;55146;47.468;18.806;2024-01-30T03:25:33;30.03;;;13.50;;
68300;SDS011;55146;47.468;18.806;2024-01-30T03:27:58;28.97;;;14.73;;
68300;SDS011;55146;47.468;18.806;2024-01-30T03:30:24;26.90;;;13.47;;
68300;SDS011;55146;47.468;18.806;2024-01-30T03:32:49;26.20;;;13.80;;
68300;SDS011;55146;47.468;18.806;2024-01-30T03:35:15;24.30;;;13.30;;
68300;SDS011;55146;47.468;18.806;2024-01-30T03:37:40;25.33;;;12.87;;
68300;SDS011;55146;47.468;18.806;2024-01-30T03:40:06;23.23;;;13.80;;
68300;SDS011;55146;47.468;18.806;2024-01-30T03:42:32;23.87;;;13.07;;
68300;SDS011;55146;47.468;18.806;2024-01-30T03:44:57;23.43;;;12.07;;
68300;SDS011;55146;47.468;18.806;2024-01-30T03:47:23;28.53;;;13.23;;
68300;SDS011;55146;47.468;18.806;2024-01-30T03:49:48;29.23;;;13.90;;
68300;SDS011;55146;47.468;18.806;2024-01-30T03:52:13;25.50;;;12.65;;
68300;SDS011;55146;47.468;18.806;2024-01-30T03:54:39;28.67;;;13.40;;
68300;SDS011;55146;47.468;18.806;2024-01-30T03:57:04;24.80;;;13.77;;
68300;SDS011;55146;47.468;18.806;2024-01-30T03:59:30;23.65;;;13.45;;
68300;SDS011;55146;47.468;18.806;2024-01-30T04:01:55;30.10;;;13.33;;
68300;SDS011;55146;47.468;18.806;2024-01-30T04:04:21;28.70;;;14.43;;
68300;SDS011;55146;47.468;18.806;2024-01-30T04:06:46;25.03;;;13.93;;
68300;SDS011;55146;47.468;18.806;2024-01-30T04:09:12;25.58;;;13.30;;
68300;SDS011;55146;47.468;18.806;2024-01-30T04:11:38;29.37;;;13.77;;
68300;SDS011;55146;47.468;18.806;2024-01-30T04:14:04;33.47;;;14.07;;
68300;SDS011;55146;47.468;18.806;2024-01-30T04:16:30;25.65;;;13.57;;
68300;SDS011;55146;47.468;18.806;2024-01-30T04:18:55;26.60;;;13.67;;
68300;SDS011;55146;47.468;18.806;2024-01-30T04:21:21;26.67;;;13.17;;
68300;SDS011;55146;47.468;18.806;2024-01-30T04:23:47;26.92;;;13.00;;
68300;SDS011;55146;47.468;18.806;2024-01-30T04:26:13;27.13;;;13.98;;
68300;SDS011;55146;47.468;18.806;2024-01-30T04:28:38;25.47;;;12.87;;
68300;SDS011;55146;47.468;18.806;2024-01-30T04:31:06;28.98;;;14.63;;
68300;SDS011;55146;47.468;18.806;2024-01-30T04:33:31;26.27;;;14.20;;
68300;SDS011;55146;47.468;18.806;2024-01-30T04:35:56;29.63;;;14.90;;
68300;SDS011;55146;47.468;18.806;2024-01-30T04:38:21;24.83;;;13.13;;
68300;SDS011;55146;47.468;18.806;2024-01-30T04:40:47;26.00;;;11.87;;
68300;SDS011;55146;47.468;18.806;2024-01-30T04:43:12;26.53;;;13.50;;
68300;SDS011;55146;47.468;18.806;2024-01-30T04:45:37;31.33;;;14.40;;
68300;SDS011;55146;47.468;18.806;2024-01-30T04:48:03;27.73;;;13.05;;
68300;SDS011;55146;47.468;18.806;2024-01-30T04:50:28;22.52;;;13.20;;
68300;SDS011;55146;47.468;18.806;2024-01-30T04:53:12;23.23;;;13.30;;
68300;SDS011;55146;47.468;18.806;2024-01-30T04:55:37;26.30;;;13.83;;
68300;SDS011;55146;47.468;18.806;2024-01-30T04:58:03;27.93;;;14.77;;
68300;SDS011;55146;47.468;18.806;2024-01-30T05:00:28;23.37;;;12.27;;
68300;SDS011;55146;47.468;18.806;2024-01-30T05:02:57;24.15;;;13.20;;
68300;SDS011;55146;47.468;18.806;2024-01-30T05:05:22;25.53;;;13.60;;
68300;SDS011;55146;47.468;18.806;2024-01-30T05:07:47;24.75;;;13.10;;
68300;SDS011;55146;47.468;18.806;2024-01-30T05:10:13;23.17;;;12.33;;
68300;SDS011;55146;47.468;18.806;2024-01-30T05:12:39;27.80;;;13.73;;
68300;SDS011;55146;47.468;18.806;2024-01-30T05:15:05;25.58;;;13.48;;
68300;SDS011;55146;47.468;18.806;2024-01-30T05:17:31;27.40;;;13.85;;
68300;SDS011;55146;47.468;18.806;2024-01-30T05:19:56;26.57;;;12.33;;
68300;SDS011;55146;47.468;18.806;2024-01-30T05:22:22;24.53;;;13.60;;
68300;SDS011;55146;47.468;18.806;2024-01-30T05:24:47;23.47;;;13.27;;
68300;SDS011;55146;47.468;18.806;2024-01-30T05:27:12;26.87;;;12.50;;
68300;SDS011;55146;47.468;18.806;2024-01-30T05:29:40;28.93;;;13.87;;
68300;SDS011;55146;47.468;18.806;2024-01-30T05:32:06;24.27;;;13.35;;
68300;SDS011;55146;47.468;18.806;2024-01-30T05:34:31;26.23;;;12.97;;
68300;SDS011;55146;47.468;18.806;2024-01-30T05:36:57;25.92;;;12.48;;
68300;SDS011;55146;47.468;18.806;2024-01-30T05:39:23;24.13;;;13.73;;
68300;SDS011;55146;47.468;18.806;2024-01-30T05:41:48;27.07;;;14.30;;
68300;SDS011;55146;47.468;18.806;2024-01-30T05:44:14;23.73;;;12.77;;
68300;SDS011;55146;47.468;18.806;2024-01-30T05:46:39;26.60;;;13.70;;
68300;SDS011;55146;47.468;18.806;2024-01-30T05:49:04;25.65;;;12.70;;
68300;SDS011;55146;47.468;18.806;2024-01-30T05:51:30;25.97;;;14.07;;
68300;SDS011;55146;47.468;18.806;2024-01-30T05:53:55;24.37;;;13.57;;
68300;SDS011;55146;47.468;18.806;2024-01-30T05:56:20;26.37;;;14.20;;
68300;SDS011;55146;47.468;18.806;2024-01-30T05:58:46;24.67;;;13.27;;
68300;SDS011;55146;47.468;18.806;2024-01-30T06:01:11;23.37;;;12.67;;
68300;SDS011;55146;47.468;18.806;2024-01-30T06:03:37;26.15;;;13.65;;
68300;SDS011;55146;47.468;18.806;2024-01-30T06:06:03;26.08;;;14.02;;
68300;SDS011;55146;47.468;18.806;2024-01-30T06:08:29;25.25;;;13.35;;
68300;SDS011;55146;47.468;18.806;2024-01-30T06:10:54;24.53;;;13.53;;
68300;SDS011;55146;47.468;18.806;2024-01-30T06:13:20;26.13;;;13.93;;
68300;SDS011;55146;47.468;18.806;2024-01-30T06:15:45;24.80;;;13.87;;
68300;SDS011;55146;47.468;18.806;2024-01-30T06:18:10;25.77;;;14.40;;
68300;SDS011;55146;47.468;18.806;2024-01-30T06:20:36;28.10;;;14.57;;
68300;SDS011;55146;47.468;18.806;2024-01-30T06:23:01;27.75;;;15.75;;
68300;SDS011;55146;47.468;18.806;2024-01-30T06:25:26;25.57;;;14.23;;
68300;SDS011;55146;47.468;18.806;2024-01-30T06:27:52;29.27;;;14.60;;
68300;SDS011;55146;47.468;18.806;2024-01-30T06:30:17;30.27;;;15.93;;
68300;SDS011;55146;47.468;18.806;2024-01-30T06:32:43;34.38;;;16.33;;
68300;SDS011;55146;47.468;18.806;2024-01-30T06:35:09;28.43;;;15.83;;
68300;SDS011;55146;47.468;18.806;2024-01-30T06:37:35;32.30;;;16.55;;
68300;SDS011;55146;47.468;18.806;2024-01-30T06:40:01;32.77;;;17.43;;
68300;SDS011;55146;47.468;18.806;2024-01-30T06:42:26;30.83;;;16.90;;
68300;SDS011;55146;47.468;18.806;2024-01-30T06:44:52;30.50;;;16.37;;
68300;SDS011;55146;47.468;18.806;2024-01-30T06:47:17;31.13;;;16.37;;
68300;SDS011;55146;47.468;18.806;2024-01-30T06:49:42;31.13;;;16.97;;
68300;SDS011;55146;47.468;18.806;2024-01-30T06:52:08;31.17;;;16.83;;
68300;SDS011;55146;47.468;18.806;2024-01-30T06:54:34;29.00;;;14.80;;
68300;SDS011;55146;47.468;18.806;2024-01-30T06:56:59;30.97;;;16.23;;
68300;SDS011;55146;47.468;18.806;2024-01-30T06:59:25;27.70;;;14.33;;
68300;SDS011;55146;47.468;18.806;2024-01-30T07:01:50;26.95;;;14.70;;
68300;SDS011;55146;47.468;18.806;2024-01-30T07:04:16;31.47;;;16.27;;
68300;SDS011;55146;47.468;18.806;2024-01-30T07:06:43;30.08;;;15.77;;
68300;SDS011;55146;47.468;18.806;2024-01-30T07:09:08;30.37;;;15.70;;
68300;SDS011;55146;47.468;18.806;2024-01-30T07:11:34;27.73;;;16.43;;
68300;SDS011;55146;47.468;18.806;2024-01-30T07:13:59;31.07;;;14.73;;
68300;SDS011;55146;47.468;18.806;2024-01-30T07:16:24;30.85;;;15.27;;
68300;SDS011;55146;47.468;18.806;2024-01-30T07:18:50;31.97;;;16.63;;
68300;SDS011;55146;47.468;18.806;2024-01-30T07:21:15;31.13;;;15.97;;
68300;SDS011;55146;47.468;18.806;2024-01-30T07:23:40;33.87;;;17.37;;
68300;SDS011;55146;47.468;18.806;2024-01-30T07:26:07;30.35;;;16.70;;
68300;SDS011;55146;47.468;18.806;2024-01-30T07:28:33;34.28;;;17.05;;
68300;SDS011;55146;47.468;18.806;2024-01-30T07:30:59;27.13;;;16.07;;
68300;SDS011;55146;47.468;18.806;2024-01-30T07:33:24;32.40;;;16.65;;
68300;SDS011;55146;47.468;18.806;2024-01-30T07:35:49;32.90;;;16.80;;
68300;SDS011;55146;47.468;18.806;2024-01-30T07:38:17;33.50;;;17.95;;
68300;SDS011;55146;47.468;18.806;2024-01-30T07:40:42;34.30;;;16.67;;
68300;SDS011;55146;47.468;18.806;2024-01-30T07:43:07;32.23;;;17.87;;
68300;SDS011;55146;47.468;18.806;2024-01-30T07:45:33;33.20;;;17.80;;
68300;SDS011;55146;47.468;18.806;2024-01-30T07:47:58;32.10;;;17.60;;
68300;SDS011;55146;47.468;18.806;2024-01-30T07:50:27;37.35;;;19.70;;
68300;SDS011;55146;47.468;18.806;2024-01-30T07:52:52;33.23;;;19.77;;
68300;SDS011;55146;47.468;18.806;2024-01-30T07:55:22;35.90;;;20.10;;
68300;SDS011;55146;47.468;18.806;2024-01-30T07:57:56;41.97;;;21.83;;
68300;SDS011;55146;47.468;18.806;2024-01-30T08:00:22;36.33;;;19.60;;
68300;SDS011;55146;47.468;18.806;2024-01-30T08:02:47;41.63;;;21.65;;
68300;SDS011;55146;47.468;18.806;2024-01-30T08:05:13;37.92;;;21.62;;
68300;SDS011;55146;47.468;18.806;2024-01-30T08:07:40;35.83;;;20.27;;
68300;SDS011;55146;47.468;18.806;2024-01-30T08:10:08;33.17;;;18.27;;
68300;SDS011;55146;47.468;18.806;2024-01-30T08:12:36;33.72;;;18.40;;
68300;SDS011;55146;47.468;18.806;2024-01-30T08:15:02;32.13;;;18.43;;
68300;SDS011;55146;47.468;18.806;2024-01-30T08:17:28;31.00;;;16.52;;
68300;SDS011;55146;47.468;18.806;2024-01-30T08:19:53;33.57;;;17.67;;
68300;SDS011;55146;47.468;18.806;2024-01-30T08:22:19;30.58;;;17.17;;
68300;SDS011;55146;47.468;18.806;2024-01-30T08:24:44;31.50;;;17.03;;
68300;SDS011;55146;47.468;18.806;2024-01-30T08:27:09;32.77;;;18.20;;
68300;SDS011;55146;47.468;18.806;2024-01-30T08:29:37;35.40;;;16.97;;
68300;SDS011;55146;47.468;18.806;2024-01-30T08:32:04;40.72;;;18.98;;
68300;SDS011;55146;47.468;18.806;2024-01-30T08:34:30;32.05;;;18.33;;
68300;SDS011;55146;47.468;18.806;2024-01-30T08:36:56;32.97;;;17.10;;
68300;SDS011;55146;47.468;18.806;2024-01-30T08:39:21;33.83;;;19.17;;
68300;SDS011;55146;47.468;18.806;2024-01-30T08:41:47;34.03;;;16.77;;
68300;SDS011;55146;47.468;18.806;2024-01-30T08:44:12;30.53;;;18.10;;
68300;SDS011;55146;47.468;18.806;2024-01-30T08:46:37;35.50;;;19.53;;
68300;SDS011;55146;47.468;18.806;2024-01-30T08:49:03;38.63;;;20.12;;
68300;SDS011;55146;47.468;18.806;2024-01-30T08:51:31;36.33;;;20.00;;
68300;SDS011;55146;47.468;18.806;2024-01-30T08:53:56;32.03;;;17.47;;
68300;SDS011;55146;47.468;18.806;2024-01-30T08:56:22;36.50;;;18.10;;
68300;SDS011;55146;47.468;18.806;2024-01-30T08:58:47;32.07;;;17.97;;
68300;SDS011;55146;47.468;18.806;2024-01-30T09:01:12;30.77;;;17.33;;
68300;SDS011;55146;47.468;18.806;2024-01-30T09:03:38;28.95;;;17.37;;
68300;SDS011;55146;47.468;18.806;2024-01-30T09:06:15;34.17;;;18.95;;
68300;SDS011;55146;47.468;18.806;2024-01-30T09:08:40;33.80;;;17.90;;
68300;SDS011;55146;47.468;18.806;2024-01-30T09:11:09;33.20;;;18.77;;
68300;SDS011;55146;47.468;18.806;2024-01-30T09:13:38;36.33;;;17.57;;
68300;SDS011;55146;47.468;18.806;2024-01-30T09:16:03;36.38;;;20.40;;
68300;SDS011;55146;47.468;18.806;2024-01-30T09:18:29;32.90;;;17.50;;
68300;SDS011;55146;47.468;18.806;2024-01-30T09:20:55;33.75;;;18.25;;
68300;SDS011;55146;47.468;18.806;2024-01-30T09:23:20;36.30;;;19.97;;
68300;SDS011;55146;47.468;18.806;2024-01-30T09:25:45;33.73;;;19.93;;
68300;SDS011;55146;47.468;18.806;2024-01-30T09:28:11;35.93;;;20.30;;
68300;SDS011;55146;47.468;18.806;2024-01-30T09:30:36;29.83;;;16.13;;
68300;SDS011;55146;47.468;18.806;2024-01-30T09:33:01;33.50;;;19.77;;
68300;SDS011;55146;47.468;18.806;2024-01-30T09:35:27;33.97;;;17.33;;
68300;SDS011;55146;47.468;18.806;2024-01-30T09:37:52;33.40;;;19.03;;
68300;SDS011;55146;47.468;18.806;2024-01-30T09:40:18;44.47;;;20.73;;
68300;SDS011;55146;47.468;18.806;2024-01-30T09:42:43;32.40;;;18.33;;
68300;SDS011;55146;47.468;18.806;2024-01-30T09:45:13;33.42;;;18.65;;
68300;SDS011;55146;47.468;18.806;2024-01-30T09:47:43;29.90;;;18.10;;
68300;SDS011;55146;47.468;18.806;2024-01-30T09:50:09;34.45;;;19.80;;
68300;SDS011;55146;47.468;18.806;2024-01-30T09:52:36;36.22;;;20.08;;
68300;SDS011;55146;47.468;18.806;2024-01-30T09:55:02;40.45;;;20.33;;
68300;SDS011;55146;47.468;18.806;2024-01-30T09:57:28;32.70;;;19.33;;
68300;SDS011;55146;47.468;18.806;2024-01-30T09:59:54;35.83;;;19.15;;
68300;SDS011;55146;47.468;18.806;2024-01-30T10:02:19;35.97;;;19.50;;
68300;SDS011;55146;47.468;18.806;2024-01-30T10:04:49;34.50;;;19.00;;
68300;SDS011;55146;47.468;18.806;2024-01-30T10:07:19;29.37;;;15.83;;
68300;SDS011;55146;47.468;18.806;2024-01-30T10:09:45;23.83;;;11.07;;
68300;SDS011;55146;47.468;18.806;2024-01-30T10:12:11;22.05;;;12.10;;
68300;SDS011;55146;47.468;18.806;2024-01-30T10:14:38;21.05;;;11.68;;
68300;SDS011;55146;47.468;18.806;2024-01-30T10:17:10;24.33;;;11.82;;
68300;SDS011;55146;47.468;18.806;2024-01-30T10:19:37;23.17;;;13.67;;
68300;SDS011;55146;47.468;18.806;2024-01-30T10:22:03;29.05;;;15.20;;
68300;SDS011;55146;47.468;18.806;2024-01-30T10:24:29;23.52;;;13.75;;
68300;SDS011;55146;47.468;18.806;2024-01-30T10:26:54;24.33;;;13.23;;
68300;SDS011;55146;47.468;18.806;2024-01-30T10:29:20;22.45;;;12.60;;
68300;SDS011;55146;47.468;18.806;2024-01-30T10:31:46;23.40;;;13.47;;
68300;SDS011;55146;47.468;18.806;2024-01-30T10:34:12;29.55;;;14.77;;
68300;SDS011;55146;47.468;18.806;2024-01-30T10:36:41;27.73;;;15.35;;
68300;SDS011;55146;47.468;18.806;2024-01-30T10:39:11;26.17;;;15.10;;
68300;SDS011;55146;47.468;18.806;2024-01-30T10:41:45;30.13;;;15.43;;
68300;SDS011;55146;47.468;18.806;2024-01-30T10:44:13;29.17;;;16.20;;
68300;SDS011;55146;47.468;18.806;2024-01-30T10:46:43;29.30;;;16.73;;
68300;SDS011;55146;47.468;18.806;2024-01-30T10:49:13;30.85;;;17.67;;
68300;SDS011;55146;47.468;18.806;2024-01-30T10:51:40;25.80;;;15.25;;
68300;SDS011;55146;47.468;18.806;2024-01-30T10:54:07;28.17;;;14.60;;
68300;SDS011;55146;47.468;18.806;2024-01-30T10:56:34;25.67;;;14.63;;
68300;SDS011;55146;47.468;18.806;2024-01-30T10:59:00;26.85;;;15.27;;
68300;SDS011;55146;47.468;18.806;2024-01-30T11:01:26;27.27;;;16.67;;
68300;SDS011;55146;47.468;18.806;2024-01-30T11:03:53;33.03;;;16.77;;
68300;SDS011;55146;47.468;18.806;2024-01-30T11:06:22;31.52;;;17.95;;
68300;SDS011;55146;47.468;18.806;2024-01-30T11:09:04;30.27;;;17.40;;
68300;SDS011;55146;47.468;18.806;2024-01-30T11:14:26;27.85;;;16.70;;
68300;SDS011;55146;47.468;18.806;2024-01-30T11:16:56;28.20;;;16.30;;
68300;SDS011;55146;47.468;18.806;2024-01-30T11:19:23;30.40;;;15.82;;
68300;SDS011;55146;47.468;18.806;2024-01-30T11:21:52;27.60;;;15.40;;
68300;SDS011;55146;47.468;18.806;2024-01-30T11:24:20;29.00;;;15.20;;
68300;SDS011;55146;47.468;18.806;2024-01-30T11:26:49;29.05;;;15.82;;
68300;SDS011;55146;47.468;18.806;2024-01-30T11:29:18;34.67;;;17.53;;
68300;SDS011;55146;47.468;18.806;2024-01-30T11:31:57;30.65;;;17.60;;
68300;SDS011;55146;47.468;18.806;2024-01-30T11:34:24;41.40;;;20.27;;
68300;SDS011;55146;47.468;18.806;2024-01-30T11:36:56;33.27;;;18.27;;
68300;SDS011;55146;47.468;18.806;2024-01-30T11:39:26;32.22;;;17.25;;
68300;SDS011;55146;47.468;18.806;2024-01-30T11:41:52;34.63;;;18.62;;
68300;SDS011;55146;47.468;18.806;2024-01-30T11:44:22;23.83;;;14.40;;
68300;SDS011;55146;47.468;18.806;2024-01-30T11:46:48;30.37;;;15.02;;
68300;SDS011;55146;47.468;18.806;2024-01-30T11:49:14;29.00;;;15.18;;
68300;SDS011;55146;47.468;18.806;2024-01-30T11:51:40;25.08;;;13.85;;
68300;SDS011;55146;47.468;18.806;2024-01-30T11:54:07;28.47;;;15.73;;
68300;SDS011;55146;47.468;18.806;2024-01-30T11:56:32;30.62;;;16.17;;
68300;SDS011;55146;47.468;18.806;2024-01-30T11:58:58;28.87;;;16.92;;
68300;SDS011;55146;47.468;18.806;2024-01-30T12:01:25;29.43;;;16.30;;
68300;SDS011;55146;47.468;18.806;2024-01-30T12:03:51;32.97;;;17.77;;
68300;SDS011;55146;47.468;18.806;2024-01-30T12:06:17;30.25;;;17.27;;
68300;SDS011;55146;47.468;18.806;2024-01-30T12:08:42;35.53;;;17.30;;
68300;SDS011;55146;47.468;18.806;2024-01-30T12:11:09;38.20;;;19.12;;
68300;SDS011;55146;47.468;18.806;2024-01-30T12:13:34;39.43;;;18.67;;
68300;SDS011;55146;47.468;18.806;2024-01-30T12:16:00;38.53;;;20.20;;
68300;SDS011;55146;47.468;18.806;2024-01-30T12:18:26;36.28;;;18.40;;
68300;SDS011;55146;47.468;18.806;2024-01-30T12:20:58;38.37;;;20.87;;
68300;SDS011;55146;47.468;18.806;2024-01-30T12:23:27;40.38;;;22.33;;
68300;SDS011;55146;47.468;18.806;2024-01-30T12:25:53;38.63;;;20.48;;
68300;SDS011;55146;47.468;18.806;2024-01-30T12:28:19;38.40;;;20.40;;
68300;SDS011;55146;47.468;18.806;2024-01-30T12:30:45;41.28;;;21.33;;
68300;SDS011;55146;47.468;18.806;2024-01-30T12:33:15;36.73;;;19.13;;
68300;SDS011;55146;47.468;18.806;2024-01-30T12:35:45;40.22;;;19.83;;
68300;SDS011;55146;47.468;18.806;2024-01-30T12:38:11;41.65;;;20.30;;
68300;SDS011;55146;47.468;18.806;2024-01-30T12:40:37;36.23;;;19.53;;
68300;SDS011;55146;47.468;18.806;2024-01-30T12:43:02;38.23;;;19.67;;
68300;SDS011;55146;47.468;18.806;2024-01-30T12:45:28;38.22;;;19.27;;
68300;SDS011;55146;47.468;18.806;2024-01-30T12:47:53;39.27;;;20.27;;
68300;SDS011;55146;47.468;18.806;2024-01-30T12:50:19;44.05;;;21.08;;
68300;SDS011;55146;47.468;18.806;2024-01-30T12:52:44;35.53;;;20.33;;
68300;SDS011;55146;47.468;18.806;2024-01-30T12:55:10;38.97;;;19.83;;
68300;SDS011;55146;47.468;18.806;2024-01-30T12:57:35;36.60;;;18.97;;
68300;SDS011;55146;47.468;18.806;2024-01-30T13:00:01;38.63;;;21.23;;
68300;SDS011;55146;47.468;18.806;2024-01-30T13:02:26;41.43;;;21.37;;
68300;SDS011;55146;47.468;18.806;2024-01-30T13:04:59;39.40;;;21.02;;
68300;SDS011;55146;47.468;18.806;2024-01-30T13:07:25;41.33;;;19.73;;
68300;SDS011;55146;47.468;18.806;2024-01-30T13:09:50;41.20;;;21.23;;
68300;SDS011;55146;47.468;18.806;2024-01-30T13:12:15;36.70;;;20.20;;
68300;SDS011;55146;47.468;18.806;2024-01-30T13:14:41;40.13;;;20.07;;
68300;SDS011;55146;47.468;18.806;2024-01-30T13:17:07;38.65;;;21.83;;
68300;SDS011;55146;47.468;18.806;2024-01-30T13:19:33;43.53;;;22.00;;
68300;SDS011;55146;47.468;18.806;2024-01-30T13:21:58;38.17;;;19.60;;
68300;SDS011;55146;47.468;18.806;2024-01-30T13:24:23;35.47;;;19.60;;
68300;SDS011;55146;47.468;18.806;2024-01-30T13:26:49;36.05;;;18.15;;
68300;SDS011;55146;47.468;18.806;2024-01-30T13:29:14;30.70;;;16.73;;
68300;SDS011;55146;47.468;18.806;2024-01-30T13:31:39;30.43;;;16.67;;
68300;SDS011;55146;47.468;18.806;2024-01-30T13:34:05;33.83;;;16.63;;
68300;SDS011;55146;47.468;18.806;2024-01-30T13:36:32;22.85;;;12.37;;
68300;SDS011;55146;47.468;18.806;2024-01-30T13:38:57;23.87;;;11.68;;
68300;SDS011;55146;47.468;18.806;2024-01-30T13:41:23;17.80;;;9.23;;
68300;SDS011;55146;47.468;18.806;2024-01-30T13:43:48;15.17;;;9.67;;
68300;SDS011;55146;47.468;18.806;2024-01-30T13:46:14;18.27;;;10.20;;
68300;SDS011;55146;47.468;18.806;2024-01-30T13:48:39;17.80;;;10.77;;
68300;SDS011;55146;47.468;18.806;2024-01-30T13:51:05;20.03;;;10.30;;
68300;SDS011;55146;47.468;18.806;2024-01-30T13:53:31;20.33;;;12.07;;
68300;SDS011;55146;47.468;18.806;2024-01-30T13:55:56;21.53;;;12.10;;
68300;SDS011;55146;47.468;18.806;2024-01-30T13:58:21;23.73;;;13.67;;
68300;SDS011;55146;47.468;18.806;2024-01-30T14:00:47;29.10;;;13.37;;
68300;SDS011;55146;47.468;18.806;2024-01-30T14:03:12;21.23;;;11.83;;
68300;SDS011;55146;47.468;18.806;2024-01-30T14:05:37;20.07;;;12.20;;